Marston, North Carolina
Current Conditions -  °F | °C
As of 4:56 PM on Thursday 23 Oct 2014 (Local Time) from KHFF Reporting Station
Clear Clear  
Wind Chill: 69°   Ceiling: Unl
Heat Index: 69°   Visibility: 10mi
Dew Point: 44°   Wind: 8mph
Humidity: 42%   Direction: 310°NW
Pressure: 29.96"   Gusts: NA
Location:  34.99°N, 79.58°W
Report Text: KHFF 232056Z AUTO 31007KT 10SM CLR 20/07 A2996 RMK AO2 SLP147 T02040069 56014
Loading
Personal Weather Stations






























Interactive Weather Map
Tropical Storm Tracking
New forecast layout! Learn more

10-Day Weather Forecast

Advertisements
Track Severe Weather on mobile